Terminal Aerodrome Forecast
Issued by NWS

Home | Current Version | Previous Version | Text Only | Print | Product List | Glossary On
Versions: 1 2 3 4 5 6 7 8 9 10 11 12 13 14 15 16 17
212
FTUS43 KICT 201724
TAFCNU
TAF
KCNU 201724Z 2018/2118 14009KT P6SM SCT250
     FM202200 17007KT P6SM VCTS SCT040 BKN250CB
     FM210200 16006KT P6SM SCT250
     FM211600 19008KT P6SM SCT040 BKN200=

USA.gov is the U.S. government's official web portal to all federal, state and local government web resources and services.